Observation data for Memphis on 07/02/2020      Previous  Date       Current Mesonet Observations  Soil Data  Daily Summary Page  Observations in Plain Language
KMES 020500Z 18006KT 30/18 A299 RMK A01 T03040179  RH  050%=      5-min Rain = 0
KMES 020505Z 18005KT 30/18 A299 RMK A01 T03040177  RH  049%=      5-min Rain = 0
KMES 020510Z 19008KT 30/17 A299 RMK A01 T03030171  RH  047%=      5-min Rain = 0
KMES 020515Z 20009KT 31/16 A299 RMK A01 T03050164  RH  045%=      5-min Rain = 0
KMES 020520Z 20009KT 31/16 A299 RMK A01 T03050160  RH  044%=      5-min Rain = 0
KMES 020525Z 21008KT 30/16 A299 RMK A01 T03030160  RH  044%=      5-min Rain = 0
KMES 020530Z 21008KT 30/16 A299 RMK A01 T03020160  RH  044%=      5-min Rain = 0
KMES 020535Z 21008KT 30/16 A299 RMK A01 T03020159  RH  044%=      5-min Rain = 0
KMES 020540Z 22008KT 30/16 A299 RMK A01 T03010159  RH  044%=      5-min Rain = 0
KMES 020545Z 22009KT 30/16 A2991 RMK A01 T03000159  RH  045%=      5-min Rain = 0
KMES 020550Z 22008KT 30/16 A2991 RMK A01 T02990159  RH  045%=      5-min Rain = 0
KMES 020555Z 23007KT 30/16 A2991 RMK A01 T02970158  RH  045%=      5-min Rain = 0
KMES 020600Z 23009KT 30/16 A2991 RMK A01 T02970156  RH  045%=      5-min Rain = 0
KMES 020605Z 23008KT 30/16 A2991 RMK A01 T02960155  RH  045%=      5-min Rain = 0
KMES 020610Z 24008KT 30/15 A2991 RMK A01 T02960154  RH  044%=      5-min Rain = 0
KMES 020615Z 24009KT 30/15 A2991 RMK A01 T02960152  RH  044%=      5-min Rain = 0
KMES 020620Z 23009KT 30/15 A2991 RMK A01 T02960151  RH  043%=      5-min Rain = 0
KMES 020625Z 23008KT 30/15 A2991 RMK A01 T02950151  RH  044%=      5-min Rain = 0
KMES 020630Z 23006KT 29/15 A2991 RMK A01 T02930151  RH  044%=      5-min Rain = 0
KMES 020635Z 22005KT 29/15 A2991 RMK A01 T02910152  RH  045%=      5-min Rain = 0
KMES 020640Z 21004KT 29/15 A2991 RMK A01 T02900153  RH  045%=      5-min Rain = 0
KMES 020645Z 19004KT 29/15 A2991 RMK A01 T02890153  RH  046%=      5-min Rain = 0
KMES 020650Z 20003KT 29/15 A2991 RMK A01 T02870154  RH  046%=      5-min Rain = 0
KMES 020655Z 18003KT 29/16 A2992 RMK A01 T02850155  RH  047%=      5-min Rain = 0
KMES 020700Z 20003KT 28/16 A2991 RMK A01 T02830155  RH  048%=      5-min Rain = 0
KMES 020705Z 21004KT 28/16 A2991 RMK A01 T02820156  RH  049%=      5-min Rain = 0
KMES 020710Z 22005KT 28/16 A2991 RMK A01 T02810155  RH  049%=      5-min Rain = 0
KMES 020715Z 22005KT 28/15 A2991 RMK A01 T02810153  RH  048%=      5-min Rain = 0
KMES 020720Z 21003KT 28/15 A2991 RMK A01 T02820151  RH  047%=      5-min Rain = 0
KMES 020725Z 19002KT 28/15 A2991 RMK A01 T02820151  RH  047%=      5-min Rain = 0
KMES 020730Z 21001KT 28/15 A2991 RMK A01 T02810152  RH  047%=      5-min Rain = 0
KMES 020735Z 15001KT 28/15 A2991 RMK A01 T02790154  RH  049%=      5-min Rain = 0
KMES 020740Z 16003KT 28/16 A2991 RMK A01 T02750156  RH  051%=      5-min Rain = 0
KMES 020745Z 17003KT 27/15 A2991 RMK A01 T02730154  RH  051%=      5-min Rain = 0
KMES 020750Z 14003KT 27/16 A2991 RMK A01 T02720155  RH  051%=      5-min Rain = 0
KMES 020755Z 12005KT 27/16 A2991 RMK A01 T02670158  RH  054%=      5-min Rain = 0
KMES 020800Z 13005KT 26/16 A2991 RMK A01 T02600161  RH  057%=      5-min Rain = 0
KMES 020805Z 14006KT 26/16 A2991 RMK A01 T02570159  RH  057%=      5-min Rain = 0
KMES 020810Z 14005KT 26/16 A2991 RMK A01 T02580156  RH  056%=      5-min Rain = 0
KMES 020815Z 14004KT 26/16 A2991 RMK A01 T02590156  RH  055%=      5-min Rain = 0
KMES 020820Z 15003KT 26/16 A2991 RMK A01 T02590156  RH  055%=      5-min Rain = 0
KMES 020825Z 16003KT 26/16 A2991 RMK A01 T02590156  RH  055%=      5-min Rain = 0
KMES 020830Z 19002KT 26/16 A2991 RMK A01 T02590156  RH  055%=      5-min Rain = 0
KMES 020835Z 20002KT 26/16 A2991 RMK A01 T02570156  RH  056%=      5-min Rain = 0
KMES 020840Z 27002KT 26/16 A2991 RMK A01 T02560158  RH  057%=      5-min Rain = 0
KMES 020845Z 31002KT 25/16 A2991 RMK A01 T02510160  RH  060%=      5-min Rain = 0
KMES 020850Z 29001KT 25/16 A2991 RMK A01 T02470159  RH  061%=      5-min Rain = 0
KMES 020855Z 17001KT 25/16 A2991 RMK A01 T02460160  RH  062%=      5-min Rain = 0
KMES 020900Z 12002KT 24/16 A2991 RMK A01 T02440161  RH  063%=      5-min Rain = 0
KMES 020905Z 11002KT 24/16 A2991 RMK A01 T02400161  RH  064%=      5-min Rain = 0
KMES 020910Z 07002KT 24/16 A2991 RMK A01 T02360162  RH  066%=      5-min Rain = 0
KMES 020915Z 07003KT 23/16 A2992 RMK A01 T02340162  RH  067%=      5-min Rain = 0
KMES 020920Z 09004KT 23/16 A2992 RMK A01 T02320162  RH  068%=      5-min Rain = 0
KMES 020925Z 11004KT 23/16 A2992 RMK A01 T02320162  RH  068%=      5-min Rain = 0
KMES 020930Z 13004KT 23/16 A2991 RMK A01 T02310163  RH  069%=      5-min Rain = 0
KMES 020935Z 15004KT 23/16 A2991 RMK A01 T02340162  RH  067%=      5-min Rain = 0
KMES 020940Z 15003KT 24/16 A2991 RMK A01 T02380161  RH  065%=      5-min Rain = 0
KMES 020945Z 14002KT 24/16 A2991 RMK A01 T02390161  RH  065%=      5-min Rain = 0
KMES 020950Z 14001KT 24/16 A2991 RMK A01 T02380161  RH  065%=      5-min Rain = 0
KMES 020955Z 18000KT 24/16 A2991 RMK A01 T02360161  RH  066%=      5-min Rain = 0
KMES 021000Z 15001KT 24/16 A2991 RMK A01 T02360161  RH  066%=      5-min Rain = 0
KMES 021005Z 16002KT 24/16 A2991 RMK A01 T02350161  RH  066%=      5-min Rain = 0
KMES 021010Z 18002KT 23/16 A2991 RMK A01 T02340161  RH  066%=      5-min Rain = 0
KMES 021015Z 18002KT 23/16 A2992 RMK A01 T02330161  RH  067%=      5-min Rain = 0
KMES 021020Z 17002KT 23/16 A2992 RMK A01 T02310161  RH  068%=      5-min Rain = 0
KMES 021025Z 21001KT 23/16 A2992 RMK A01 T02300160  RH  068%=      5-min Rain = 0
KMES 021030Z 22001KT 23/16 A2992 RMK A01 T02290161  RH  068%=      5-min Rain = 0
KMES 021035Z 18001KT 23/16 A2992 RMK A01 T02290161  RH  068%=      5-min Rain = 0
KMES 021040Z 15001KT 23/16 A2992 RMK A01 T02290161  RH  069%=      5-min Rain = 0
KMES 021045Z 13000KT 23/16 A2992 RMK A01 T02270162  RH  070%=      5-min Rain = 0
KMES 021050Z 03001KT 22/16 A2992 RMK A01 T02230163  RH  072%=      5-min Rain = 0
KMES 021055Z 03002KT 22/16 A2992 RMK A01 T02210163  RH  073%=      5-min Rain = 0
KMES 021100Z 00001KT 22/16 A2992 RMK A01 T02200164  RH  074%=      5-min Rain = 0
KMES 021105Z 35002KT 22/17 A2992 RMK A01 T02210165  RH  074%=      5-min Rain = 0
KMES 021110Z 34002KT 22/17 A2992 RMK A01 T02220165  RH  074%=      5-min Rain = 0
KMES 021115Z 35003KT 22/17 A2992 RMK A01 T02220166  RH  074%=      5-min Rain = 0
KMES 021120Z 02002KT 22/17 A2992 RMK A01 T02220165  RH  074%=      5-min Rain = 0
KMES 021125Z 27001KT 22/16 A2992 RMK A01 T02230164  RH  073%=      5-min Rain = 0
KMES 021130Z 27000KT 22/17 A2993 RMK A01 T02230165  RH  073%=      5-min Rain = 0
KMES 021135Z 00000KT 22/17 A2993 RMK A01 T02220165  RH  074%=      5-min Rain = 0
KMES 021140Z 27000KT 22/17 A2993 RMK A01 T02200166  RH  075%=      5-min Rain = 0
KMES 021145Z 27000KT 22/17 A2993 RMK A01 T02190166  RH  075%=      5-min Rain = 0
KMES 021150Z 27001KT 22/17 A2993 RMK A01 T02200167  RH  076%=      5-min Rain = 0
KMES 021155Z 28001KT 22/17 A2993 RMK A01 T02210167  RH  075%=      5-min Rain = 0
KMES 021200Z 29001KT 22/17 A2993 RMK A01 T02210166  RH  075%=      5-min Rain = 0
KMES 021205Z 30000KT 22/17 A2993 RMK A01 T02210167  RH  075%=      5-min Rain = 0
KMES 021210Z 00000KT 22/17 A2993 RMK A01 T02230169  RH  075%=      5-min Rain = 0
KMES 021215Z 00000KT 22/17 A2993 RMK A01 T02240170  RH  075%=      5-min Rain = 0
KMES 021220Z 00000KT 23/17 A2993 RMK A01 T02260170  RH  074%=      5-min Rain = 0
KMES 021225Z 04001KT 23/17 A2993 RMK A01 T02290171  RH  074%=      5-min Rain = 0
KMES 021230Z 05001KT 23/17 A2993 RMK A01 T02320174  RH  074%=      5-min Rain = 0
KMES 021235Z 05000KT 24/18 A2993 RMK A01 T02350175  RH  073%=      5-min Rain = 0
KMES 021240Z 06000KT 24/17 A2993 RMK A01 T02390173  RH  070%=      5-min Rain = 0
KMES 021245Z 11000KT 24/17 A2993 RMK A01 T02430172  RH  068%=      5-min Rain = 0
KMES 021250Z 12000KT 25/17 A2994 RMK A01 T02490169  RH  064%=      5-min Rain = 0
KMES 021255Z 11000KT 25/17 A2994 RMK A01 T02520167  RH  062%=      5-min Rain = 0
KMES 021300Z 14001KT 25/17 A2994 RMK A01 T02540166  RH  061%=      5-min Rain = 0
KMES 021305Z 17001KT 26/16 A2994 RMK A01 T02560163  RH  059%=      5-min Rain = 0
KMES 021310Z 16001KT 26/16 A2994 RMK A01 T02560163  RH  059%=      5-min Rain = 0
KMES 021315Z 15002KT 26/16 A2994 RMK A01 T02570163  RH  059%=      5-min Rain = 0
KMES 021320Z 17003KT 26/16 A2995 RMK A01 T02560163  RH  059%=      5-min Rain = 0
KMES 021325Z 20003KT 26/16 A2995 RMK A01 T02570161  RH  058%=      5-min Rain = 0
KMES 021330Z 16003KT 26/16 A2995 RMK A01 T02590164  RH  059%=      5-min Rain = 0
KMES 021335Z 16004KT 26/17 A2996 RMK A01 T02610166  RH  059%=      5-min Rain = 0
KMES 021340Z 15004KT 26/17 A2996 RMK A01 T02620167  RH  058%=      5-min Rain = 0
KMES 021345Z 14005KT 27/17 A2996 RMK A01 T02650166  RH  057%=      5-min Rain = 0
KMES 021350Z 16004KT 27/16 A2997 RMK A01 T02680164  RH  056%=      5-min Rain = 0
KMES 021355Z 16003KT 27/17 A2997 RMK A01 T02710166  RH  055%=      5-min Rain = 0
KMES 021400Z 17003KT 28/17 A2997 RMK A01 T02750165  RH  054%=      5-min Rain = 0
KMES 021405Z 16004KT 28/16 A2997 RMK A01 T02780162  RH  051%=      5-min Rain = 0
KMES 021410Z 16005KT 28/16 A2997 RMK A01 T02800160  RH  050%=      5-min Rain = 0
KMES 021415Z 16005KT 28/16 A2997 RMK A01 T02830160  RH  050%=      5-min Rain = 0
KMES 021420Z 17006KT 29/16 A2997 RMK A01 T02850160  RH  049%=      5-min Rain = 0
KMES 021425Z 16006KT 29/16 A2997 RMK A01 T02880159  RH  048%=      5-min Rain = 0
KMES 021430Z 17004KT 29/16 A2997 RMK A01 T02900162  RH  048%=      5-min Rain = 0
KMES 021435Z 16005KT 29/16 A2997 RMK A01 T02920161  RH  047%=      5-min Rain = 0
KMES 021440Z 18005KT 29/16 A2997 RMK A01 T02930161  RH  047%=      5-min Rain = 0
KMES 021445Z 17005KT 30/16 A2997 RMK A01 T02950162  RH  047%=      5-min Rain = 0
KMES 021450Z 15006KT 30/16 A2997 RMK A01 T02970161  RH  046%=      5-min Rain = 0
KMES 021455Z 18005KT 30/16 A2997 RMK A01 T02990163  RH  046%=      5-min Rain = 0
KMES 021500Z 20004KT 30/16 A2997 RMK A01 T03000164  RH  046%=      5-min Rain = 0
KMES 021505Z 17004G9KT 30/16 A2997 RMK A01 T03040164  RH  045%=      5-min Rain = 0
KMES 021510Z 19005KT 30/16 A2997 RMK A01 T03030162  RH  045%=      5-min Rain = 0
KMES 021515Z 19006KT 30/16 A2997 RMK A01 T03040164  RH  045%=      5-min Rain = 0
KMES 021520Z 16006KT 31/16 A2997 RMK A01 T03070161  RH  044%=      5-min Rain = 0
KMES 021525Z 14006KT 31/16 A2997 RMK A01 T03080160  RH  043%=      5-min Rain = 0
KMES 021530Z 19005KT 31/16 A2997 RMK A01 T03090159  RH  043%=      5-min Rain = 0
KMES 021535Z 17005KT 31/16 A2997 RMK A01 T03100161  RH  043%=      5-min Rain = 0
KMES 021540Z 15006KT 31/16 A2997 RMK A01 T03110160  RH  042%=      5-min Rain = 0
KMES 021545Z 18006KT 31/16 A2997 RMK A01 T03130158  RH  041%=      5-min Rain = 0
KMES 021550Z 20006G11KT 31/16 A2997 RMK A01 T03120158  RH  041%=      5-min Rain = 0
KMES 021555Z 18006KT 31/16 A2997 RMK A01 T03120158  RH  041%=      5-min Rain = 0
KMES 021600Z 16005KT 31/16 A2997 RMK A01 T03140160  RH  041%=      5-min Rain = 0
KMES 021605Z 16007KT 32/16 A2997 RMK A01 T03170160  RH  041%=      5-min Rain = 0
KMES 021610Z 17006KT 32/16 A2997 RMK A01 T03190161  RH  041%=      5-min Rain = 0
KMES 021615Z 18007KT 32/16 A2997 RMK A01 T03200157  RH  039%=      5-min Rain = 0
KMES 021620Z 15005KT 32/16 A2997 RMK A01 T03190158  RH  040%=      5-min Rain = 0
KMES 021625Z 16004G9KT 33/16 A2997 RMK A01 T03250159  RH  039%=      5-min Rain = 0
KMES 021630Z 19005KT 33/16 A2996 RMK A01 T03260158  RH  038%=      5-min Rain = 0
KMES 021635Z 18004KT 33/16 A2996 RMK A01 T03280161  RH  039%=      5-min Rain = 0
KMES 021640Z 15005KT 33/16 A2996 RMK A01 T03290157  RH  037%=      5-min Rain = 0
KMES 021645Z 16004KT 33/16 A2996 RMK A01 T03280159  RH  038%=      5-min Rain = 0
KMES 021650Z 19004KT 33/16 A2997 RMK A01 T03260160  RH  039%=      5-min Rain = 0
KMES 021655Z 15005KT 33/16 A2997 RMK A01 T03250161  RH  039%=      5-min Rain = 0
KMES 021700Z 17003G8KT 33/16 A2996 RMK A01 T03300163  RH  038%=      5-min Rain = 0
KMES 021705Z 19004KT 33/16 A2996 RMK A01 T03310160  RH  038%=      5-min Rain = 0
KMES 021710Z 17005KT 34/16 A2996 RMK A01 T03370162  RH  037%=      5-min Rain = 0
KMES 021715Z 17005KT 34/16 A2996 RMK A01 T03400155  RH  035%=      5-min Rain = 0
KMES 021720Z 16004KT 34/16 A2996 RMK A01 T03390157  RH  035%=      5-min Rain = 0
KMES 021725Z 14005G10KT 34/16 A2996 RMK A01 T03400156  RH  035%=      5-min Rain = 0
KMES 021730Z 16005KT 34/16 A2996 RMK A01 T03410155  RH  034%=      5-min Rain = 0
KMES 021735Z 17006KT 34/16 A2996 RMK A01 T03440156  RH  034%=      5-min Rain = 0
KMES 021740Z 16005G10KT 34/15 A2996 RMK A01 T03440154  RH  034%=      5-min Rain = 0
KMES 021745Z 15004KT 35/16 A2996 RMK A01 T03450155  RH  034%=      5-min Rain = 0
KMES 021750Z 11006KT 35/15 A2996 RMK A01 T03500154  RH  032%=      5-min Rain = 0
KMES 021755Z 13006G12KT 35/15 A2996 RMK A01 T03510154  RH  032%=      5-min Rain = 0
KMES 021800Z 12008G13KT 35/15 A2996 RMK A01 T03540151  RH  031%=      5-min Rain = 0
KMES 021805Z 12007KT 36/15 A2996 RMK A01 T03560152  RH  031%=      5-min Rain = 0
KMES 021810Z 12009G14KT 36/15 A2996 RMK A01 T03570151  RH  031%=      5-min Rain = 0
KMES 021815Z 11008G15KT 36/15 A2995 RMK A01 T03560153  RH  031%=      5-min Rain = 0
KMES 021820Z 13009G14KT 36/16 A2995 RMK A01 T03600155  RH  031%=      5-min Rain = 0
KMES 021825Z 11007G12KT 36/16 A2995 RMK A01 T03590155  RH  031%=      5-min Rain = 0
KMES 021830Z 11011G17KT 36/15 A2995 RMK A01 T03620154  RH  030%=      5-min Rain = 0
KMES 021835Z 12011KT 36/15 A2995 RMK A01 T03620150  RH  030%=      5-min Rain = 0
KMES 021840Z 12011G16KT 36/15 A2995 RMK A01 T03640147  RH  029%=      5-min Rain = 0
KMES 021845Z 13009G16KT 36/15 A2995 RMK A01 T03640154  RH  030%=      5-min Rain = 0
KMES 021850Z 12008G14KT 36/16 A2995 RMK A01 T03630158  RH  031%=      5-min Rain = 0
KMES 021855Z 12011KT 37/16 A2995 RMK A01 T03650157  RH  031%=      5-min Rain = 0
KMES 021900Z 12010G17KT 37/15 A2995 RMK A01 T03650150  RH  029%=      5-min Rain = 0
KMES 021905Z 11011G17KT 36/15 A2994 RMK A01 T03620151  RH  030%=      5-min Rain = 0
KMES 021910Z 12010G17KT 37/15 A2994 RMK A01 T03660152  RH  030%=      5-min Rain = 0
KMES 021915Z 15009G15KT 37/15 A2994 RMK A01 T03700153  RH  029%=      5-min Rain = 0
KMES 021920Z 11009G16KT 37/15 A2994 RMK A01 T03680154  RH  030%=      5-min Rain = 0
KMES 021925Z 12010G16KT 37/15 A2994 RMK A01 T03660153  RH  030%=      5-min Rain = 0
KMES 021930Z 12011G18KT 37/15 A2994 RMK A01 T03700154  RH  029%=      5-min Rain = 0
KMES 021935Z 12010G15KT 37/16 A2993 RMK A01 T03720158  RH  030%=      5-min Rain = 0
KMES 021940Z 10008G14KT 37/16 A2993 RMK A01 T03700157  RH  030%=      5-min Rain = 0
KMES 021945Z 12010KT 37/16 A2993 RMK A01 T03690159  RH  030%=      5-min Rain = 0
KMES 021950Z 13012KT 37/16 A2993 RMK A01 T03720157  RH  029%=      5-min Rain = 0
KMES 021955Z 12011G16KT 37/16 A2993 RMK A01 T03720157  RH  029%=      5-min Rain = 0
KMES 022000Z 14013G20KT 37/15 A2993 RMK A01 T03740154  RH  029%=      5-min Rain = 0
KMES 022005Z 11012G19KT 37/16 A2992 RMK A01 T03730155  RH  029%=      5-min Rain = 0
KMES 022010Z 13012KT 37/16 A2992 RMK A01 T03740155  RH  029%=      5-min Rain = 0
KMES 022015Z 12011G17KT 38/15 A2992 RMK A01 T03770153  RH  028%=      5-min Rain = 0
KMES 022020Z 13009G16KT 38/15 A2992 RMK A01 T03750153  RH  028%=      5-min Rain = 0
KMES 022025Z 16010G16KT 37/15 A2992 RMK A01 T03740150  RH  028%=      5-min Rain = 0
KMES 022030Z 15010G17KT 37/15 A2992 RMK A01 T03730146  RH  027%=      5-min Rain = 0
KMES 022035Z 13010G15KT 37/15 A2992 RMK A01 T03730150  RH  028%=      5-min Rain = 0
KMES 022040Z 14010G16KT 37/15 A2992 RMK A01 T03740151  RH  028%=      5-min Rain = 0
KMES 022045Z 14010KT 38/15 A2991 RMK A01 T03750151  RH  028%=      5-min Rain = 0
KMES 022050Z 15010G15KT 38/15 A2991 RMK A01 T03760147  RH  027%=      5-min Rain = 0
KMES 022055Z 15011G17KT 37/15 A2991 RMK A01 T03740148  RH  027%=      5-min Rain = 0
KMES 022100Z 13012KT 38/15 A2991 RMK A01 T03760150  RH  028%=      5-min Rain = 0
KMES 022105Z 13013G18KT 38/15 A2991 RMK A01 T03790150  RH  027%=      5-min Rain = 0
KMES 022110Z 13011G16KT 38/15 A2991 RMK A01 T03760149  RH  027%=      5-min Rain = 0
KMES 022115Z 15011G18KT 38/15 A2991 RMK A01 T03750146  RH  027%=      5-min Rain = 0
KMES 022120Z 13012G19KT 38/15 A2991 RMK A01 T03760147  RH  027%=      5-min Rain = 0
KMES 022125Z 12011G16KT 38/15 A2991 RMK A01 T03800147  RH  026%=      5-min Rain = 0
KMES 022130Z 11012G18KT 38/14 A299 RMK A01 T03780142  RH  026%=      5-min Rain = 0
KMES 022135Z 12013G20KT 38/14 A299 RMK A01 T03760142  RH  026%=      5-min Rain = 0
KMES 022140Z 13014G19KT 38/15 A299 RMK A01 T03760151  RH  028%=      5-min Rain = 0
KMES 022145Z 12013G18KT 38/15 A299 RMK A01 T03750150  RH  028%=      5-min Rain = 0
KMES 022150Z 12012KT 38/15 A2991 RMK A01 T03750151  RH  028%=      5-min Rain = 0
KMES 022155Z 14011G18KT 38/15 A2991 RMK A01 T03750152  RH  028%=      5-min Rain = 0
KMES 022200Z 11014G20KT 38/15 A299 RMK A01 T03750152  RH  028%=      5-min Rain = 0
KMES 022205Z 14013G19KT 38/15 A299 RMK A01 T03760154  RH  028%=      5-min Rain = 0
KMES 022210Z 14013KT 38/15 A299 RMK A01 T03760153  RH  028%=      5-min Rain = 0
KMES 022215Z 13014G20KT 38/15 A299 RMK A01 T03760153  RH  028%=      5-min Rain = 0
KMES 022220Z 12012G18KT 38/15 A299 RMK A01 T03760149  RH  027%=      5-min Rain = 0
KMES 022225Z 13016G21KT 38/15 A299 RMK A01 T03750147  RH  027%=      5-min Rain = 0
KMES 022230Z 13010G16KT 37/15 A299 RMK A01 T03740151  RH  028%=      5-min Rain = 0
KMES 022235Z 14011G19KT 38/15 A299 RMK A01 T03750153  RH  028%=      5-min Rain = 0
KMES 022240Z 15011G17KT 38/15 A299 RMK A01 T03760153  RH  028%=      5-min Rain = 0
KMES 022245Z 13014G22KT 37/15 A299 RMK A01 T03740148  RH  027%=      5-min Rain = 0
KMES 022250Z 15012G18KT 37/15 A299 RMK A01 T03720151  RH  028%=      5-min Rain = 0
KMES 022255Z 14013G19KT 37/15 A299 RMK A01 T03700147  RH  028%=      5-min Rain = 0
KMES 022300Z 14013G20KT 37/14 A299 RMK A01 T03670144  RH  028%=      5-min Rain = 0
KMES 022305Z 16011G18KT 36/15 A2989 RMK A01 T03630149  RH  029%=      5-min Rain = 0
KMES 022310Z 15013G18KT 36/15 A2989 RMK A01 T03600154  RH  031%=      5-min Rain = 0
KMES 022315Z 15011G16KT 36/16 A2989 RMK A01 T03580155  RH  031%=      5-min Rain = 0
KMES 022320Z 14015G22KT 36/16 A2989 RMK A01 T03570156  RH  032%=      5-min Rain = 0
KMES 022325Z 13016G21KT 36/16 A2989 RMK A01 T03560159  RH  032%=      5-min Rain = 0
KMES 022330Z 14015G21KT 36/16 A2989 RMK A01 T03550159  RH  033%=      5-min Rain = 0
KMES 022335Z 15012G17KT 35/16 A299 RMK A01 T03520158  RH  033%=      5-min Rain = 0
KMES 022340Z 14012G19KT 35/16 A299 RMK A01 T03500157  RH  033%=      5-min Rain = 0
KMES 022345Z 14012G17KT 35/16 A299 RMK A01 T03500155  RH  033%=      5-min Rain = 0
KMES 022350Z 15011G16KT 35/15 A299 RMK A01 T03490153  RH  032%=      5-min Rain = 0
KMES 022355Z 14011KT 35/15 A299 RMK A01 T03480152  RH  032%=      5-min Rain = 0
KMES 030000Z 14012G18KT 35/15 A2991 RMK A01 T03470151  RH  032%=      5-min Rain = 0
KMES 030005Z 14013KT 35/15 A2991 RMK A01 T03470150  RH  032%=      5-min Rain = 0
KMES 030010Z 14011KT 35/15 A2991 RMK A01 T03460151  RH  033%=      5-min Rain = 0
KMES 030015Z 14010KT 35/15 A2992 RMK A01 T03450150  RH  032%=      5-min Rain = 0
KMES 030020Z 14010KT 34/15 A2992 RMK A01 T03440149  RH  032%=      5-min Rain = 0
KMES 030025Z 15009G14KT 34/15 A2993 RMK A01 T03430148  RH  032%=      5-min Rain = 0
KMES 030030Z 14012KT 34/15 A2993 RMK A01 T03430150  RH  033%=      5-min Rain = 0
KMES 030035Z 13011KT 34/15 A2993 RMK A01 T03410154  RH  034%=      5-min Rain = 0
KMES 030040Z 13011KT 34/16 A2993 RMK A01 T03390156  RH  035%=      5-min Rain = 0
KMES 030045Z 12010KT 34/16 A2993 RMK A01 T03380156  RH  035%=      5-min Rain = 0
KMES 030050Z 13010KT 34/16 A2993 RMK A01 T03370156  RH  035%=      5-min Rain = 0
KMES 030055Z 13010KT 34/15 A2993 RMK A01 T03370154  RH  035%=      5-min Rain = 0
KMES 030100Z 13008KT 34/15 A2993 RMK A01 T03360154  RH  035%=      5-min Rain = 0
KMES 030105Z 12007KT 33/16 A2993 RMK A01 T03340157  RH  036%=      5-min Rain = 0
KMES 030110Z 12008KT 33/16 A2993 RMK A01 T03310160  RH  038%=      5-min Rain = 0
KMES 030115Z 12009KT 33/17 A2994 RMK A01 T03300165  RH  039%=      5-min Rain = 0
KMES 030120Z 12010KT 33/17 A2994 RMK A01 T03290169  RH  040%=      5-min Rain = 0
KMES 030125Z 12008KT 33/17 A2994 RMK A01 T03280172  RH  041%=      5-min Rain = 0
KMES 030130Z 12008KT 33/17 A2995 RMK A01 T03270172  RH  042%=      5-min Rain = 0
KMES 030135Z 12009KT 33/17 A2995 RMK A01 T03270170  RH  041%=      5-min Rain = 0
KMES 030140Z 12010KT 33/17 A2995 RMK A01 T03270166  RH  040%=      5-min Rain = 0
KMES 030145Z 12008KT 33/16 A2995 RMK A01 T03260164  RH  040%=      5-min Rain = 0
KMES 030150Z 12008KT 33/16 A2995 RMK A01 T03250163  RH  040%=      5-min Rain = 0
KMES 030155Z 11006KT 33/16 A2996 RMK A01 T03250162  RH  040%=      5-min Rain = 0
KMES 030200Z 04004KT 32/16 A2997 RMK A01 T03230162  RH  040%=      5-min Rain = 0
KMES 030205Z 32006KT 31/17 A2997 RMK A01 T03100165  RH  044%=      5-min Rain = 0
KMES 030210Z 32008KT 29/17 A2998 RMK A01 T02930168  RH  049%=      5-min Rain = 0
KMES 030215Z 32009KT 28/17 A2998 RMK A01 T02830170  RH  053%=      5-min Rain = 0
KMES 030220Z 31009KT 28/17 A2998 RMK A01 T02810171  RH  054%=      5-min Rain = 0
KMES 030225Z 31010KT 28/17 A2999 RMK A01 T02790173  RH  055%=      5-min Rain = 0
KMES 030230Z 32011KT 28/17 A2999 RMK A01 T02770174  RH  056%=      5-min Rain = 0
KMES 030235Z 32008G13KT 28/18 A2999 RMK A01 T02760175  RH  057%=      5-min Rain = 0
KMES 030240Z 30006KT 28/18 A30 RMK A01 T02750175  RH  057%=      5-min Rain = 0
KMES 030245Z 31005KT 28/18 A30 RMK A01 T02750175  RH  057%=      5-min Rain = 0
KMES 030250Z 30008KT 28/17 A3001 RMK A01 T02760173  RH  056%=      5-min Rain = 0
KMES 030255Z 32012KT 27/17 A3001 RMK A01 T02740170  RH  056%=      5-min Rain = 0
KMES 030300Z 32011G17KT 27/17 A3001 RMK A01 T02730169  RH  056%=      5-min Rain = 0
KMES 030305Z 32010G15KT 27/17 A3001 RMK A01 T02710169  RH  056%=      5-min Rain = 0
KMES 030310Z 33008KT 27/17 A3001 RMK A01 T02700170  RH  057%=      5-min Rain = 0
KMES 030315Z 33009KT 27/17 A3001 RMK A01 T02690170  RH  057%=      5-min Rain = 0
KMES 030320Z 33008KT 27/17 A3001 RMK A01 T02690170  RH  057%=      5-min Rain = 0
KMES 030325Z 33007KT 27/17 A3002 RMK A01 T02690170  RH  057%=      5-min Rain = 0
KMES 030330Z 34007KT 27/17 A3002 RMK A01 T02690170  RH  057%=      5-min Rain = 0
KMES 030335Z 36007KT 27/17 A3002 RMK A01 T02710170  RH  057%=      5-min Rain = 0
KMES 030340Z 35008KT 27/17 A3002 RMK A01 T02720170  RH  056%=      5-min Rain = 0
KMES 030345Z 33007KT 27/17 A3003 RMK A01 T02730170  RH  056%=      5-min Rain = 0
KMES 030350Z 33006KT 27/17 A3003 RMK A01 T02740171  RH  056%=      5-min Rain = 0
KMES 030355Z 33005KT 27/17 A3003 RMK A01 T02740171  RH  056%=      5-min Rain = 0
KMES 030400Z 33005KT 27/17 A3003 RMK A01 T02740171  RH  056%=      5-min Rain = 0
KMES 030405Z 32006KT 28/17 A3004 RMK A01 T02760171  RH  056%=      5-min Rain = 0
KMES 030410Z 31006KT 28/17 A3004 RMK A01 T02770171  RH  055%=      5-min Rain = 0
KMES 030415Z 33006KT 28/17 A3004 RMK A01 T02750174  RH  057%=      5-min Rain = 0
KMES 030420Z 33007KT 27/18 A3004 RMK A01 T02740175  RH  058%=      5-min Rain = 0
KMES 030425Z 33005KT 27/18 A3004 RMK A01 T02740175  RH  058%=      5-min Rain = 0
KMES 030430Z 33004KT 27/17 A3003 RMK A01 T02740172  RH  057%=      5-min Rain = 0
KMES 030435Z 33004KT 28/17 A3003 RMK A01 T02760168  RH  054%=      5-min Rain = 0
KMES 030440Z 33005KT 28/16 A3003 RMK A01 T02760164  RH  053%=      5-min Rain = 0
KMES 030445Z 33003KT 28/16 A3002 RMK A01 T02760162  RH  052%=      5-min Rain = 0
KMES 030450Z 30003KT 28/16 A3002 RMK A01 T02750162  RH  052%=      5-min Rain = 0
KMES 030455Z 25002KT 28/16 A3002 RMK A01 T02750162  RH  053%=      5-min Rain = 0

Page generated in 0.0249 seconds.